Time;durP1;ratioP1;P1;durP2;ratioP2;P2;SDS_P1;SDS_P2;PMS_P1;PMS_P2;Temp;Humidity;BMP_temperature;BMP_pressure;BME280_temperature;BME280_humidity;BME280_pressure;Samples;Min_cycle;Max_cycle;Signal;HPM_P1;HPM_P2
2021/01/17 00:00:53;;;;;;;109.90;38.20;;;;;;;-20.33;66.41;100206.33;1745343;81;21100;-70
2021/01/17 00:03:21;;;;;;;125.43;41.43;;;;;;;-20.36;66.42;100208.33;1767374;81;22048;-69
2021/01/17 00:05:50;;;;;;;128.33;39.53;;;;;;;-20.38;66.38;100201.09;1766022;80;21081;-69
2021/01/17 00:08:19;;;;;;;122.33;39.73;;;;;;;-20.40;66.29;100206.46;1766103;80;21136;-69
2021/01/17 00:10:48;;;;;;;136.17;43.57;;;;;;;-20.43;66.27;100201.76;1767838;80;21497;-70
2021/01/17 00:13:16;;;;;;;119.33;40.83;;;;;;;-20.48;66.26;100197.78;1757468;80;21092;-69
2021/01/17 00:15:45;;;;;;;216.00;73.00;;;;;;;-20.49;66.29;100193.56;1765812;81;22018;-69
2021/01/17 00:18:13;;;;;;;217.00;65.63;;;;;;;-20.50;66.47;100194.36;1761923;80;21128;-69
2021/01/17 00:20:53;;;;;;;114.00;38.93;;;;;;;-20.49;66.60;100197.33;1776769;80;21468;-69
2021/01/17 00:23:21;;;;;;;113.60;36.37;;;;;;;-20.48;66.46;100199.44;1785254;79;21074;-69
2021/01/17 00:25:51;;;;;;;94.87;31.47;;;;;;;-20.49;66.25;100197.73;1818244;77;21142;-69
2021/01/17 00:28:20;;;;;;;113.20;36.03;;;;;;;-20.52;66.12;100201.38;1798424;77;21840;-70
2021/01/17 00:30:47;;;;;;;99.87;32.63;;;;;;;-20.57;66.24;100192.38;1796857;78;21110;-68
2021/01/17 00:33:16;;;;;;;136.20;47.30;;;;;;;-20.58;66.21;100191.92;1806750;77;21589;-68
2021/01/17 00:35:44;;;;;;;155.10;52.10;;;;;;;-20.60;66.35;100194.78;1818299;77;21056;-68
2021/01/17 00:38:12;;;;;;;111.67;39.10;;;;;;;-20.62;66.42;100196.37;1826365;78;21058;-68
2021/01/17 00:40:40;;;;;;;125.70;47.53;;;;;;;-20.61;66.42;100198.09;1817266;78;21822;-68
2021/01/17 00:43:08;;;;;;;123.17;41.83;;;;;;;-20.62;66.39;100202.65;1825541;77;21126;-68
2021/01/17 11:19:37;;;;;;;40.05;18.85;;;;;;;-12.41;59.59;100141.38;1821542;78;21143;-69
2021/01/17 11:22:06;;;;;;;47.98;20.65;;;;;;;-12.34;60.05;100143.58;1820848;78;22945;-67
2021/01/17 11:24:40;;;;;;;39.38;19.30;;;;;;;-12.01;60.79;100132.81;1821767;78;21206;-67
2021/01/17 11:27:13;;;;;;;50.70;23.55;;;;;;;-11.75;59.86;100129.16;1821323;78;21594;-69
2021/01/17 11:29:41;;;;;;;44.53;21.80;;;;;;;-11.65;59.59;100122.84;1789745;78;21454;-66
2021/01/17 11:32:11;;;;;;;43.25;19.67;;;;;;;-11.48;59.92;100124.62;1789558;80;21514;-68
2021/01/17 11:34:41;;;;;;;33.80;19.32;;;;;;;-11.31;59.33;100117.50;1789451;80;21938;-67
2021/01/17 11:37:11;;;;;;;35.58;17.27;;;;;;;-11.23;58.88;100118.81;1815974;78;47651;-68
2021/01/17 11:39:39;;;;;;;33.95;15.08;;;;;;;-11.19;58.52;100113.29;1791420;78;21122;-69
2021/01/17 11:42:18;;;;;;;55.15;20.55;;;;;;;-11.17;58.01;100115.02;1815877;78;21442;-70
2021/01/17 11:44:45;;;;;;;58.52;23.18;;;;;;;-11.14;57.69;100119.27;1793080;78;21130;-69
2021/01/17 11:47:19;;;;;;;95.95;32.75;;;;;;;-11.07;57.64;100119.73;1786720;79;23495;-70
2021/01/17 11:49:47;;;;;;;69.37;27.52;;;;;;;-10.90;57.60;100114.67;1789527;80;21135;-69
2021/01/17 11:52:15;;;;;;;37.95;16.25;;;;;;;-10.79;57.11;100112.60;1799567;78;21102;-69
2021/01/17 11:54:43;;;;;;;34.98;18.20;;;;;;;-10.83;55.97;100105.77;1821757;78;21118;-68
2021/01/17 11:57:11;;;;;;;23.65;11.85;;;;;;;-10.95;56.13;100104.89;1821807;78;21158;-69
2021/01/17 11:59:39;;;;;;;30.48;14.45;;;;;;;-10.90;56.64;100107.90;1821742;78;21886;-69
2021/01/17 12:02:23;;;;;;;36.08;15.55;;;;;;;-10.76;56.14;100106.22;1814908;78;21190;-69
2021/01/17 12:05:01;;;;;;;65.20;23.52;;;;;;;-10.72;55.86;100103.23;1789395;78;21213;-69
2021/01/17 12:07:29;;;;;;;40.10;17.80;;;;;;;-10.66;55.79;100103.69;1794191;78;21158;-70
2021/01/17 12:10:09;;;;;;;40.80;15.93;;;;;;;-10.64;55.41;100105.39;1796604;78;21167;-68
2021/01/17 12:12:38;;;;;;;39.05;16.10;;;;;;;-10.64;55.56;100102.84;1791618;78;22942;-70
2021/01/17 12:15:10;;;;;;;35.45;14.45;;;;;;;-10.44;56.19;100102.44;1801206;78;21443;-71
2021/01/17 12:17:38;;;;;;;25.70;11.37;;;;;;;-10.25;56.21;100098.63;1797856;77;21138;-70
2021/01/17 12:20:10;;;;;;;25.00;10.40;;;;;;;-10.20;54.44;100093.07;1779617;79;21183;-69
2021/01/17 12:22:38;;;;;;;21.15;8.70;;;;;;;-10.15;54.29;100092.20;1776353;79;21607;-68
2021/01/17 12:25:08;;;;;;;26.50;11.75;;;;;;;-10.18;54.58;100101.16;1774465;78;21900;-67
2021/01/17 12:27:37;;;;;;;26.73;11.28;;;;;;;-10.00;53.68;100093.06;1779489;79;21147;-72
2021/01/17 12:30:07;;;;;;;19.02;9.15;;;;;;;-10.01;53.09;100088.38;1793727;79;21159;-70
2021/01/17 12:32:35;;;;;;;22.90;8.68;;;;;;;-9.95;54.01;100088.78;1779934;79;21618;-68
2021/01/17 12:35:04;;;;;;;28.67;13.60;;;;;;;-9.77;53.78;100087.48;1773705;79;21135;-69
2021/01/17 12:37:32;;;;;;;29.92;10.88;;;;;;;-9.57;53.61;100090.84;1764005;79;22116;-70
2021/01/17 12:40:00;;;;;;;25.72;9.85;;;;;;;-9.61;53.14;100090.88;1772168;79;21151;-69
2021/01/17 12:42:28;;;;;;;20.48;8.63;;;;;;;-9.58;52.97;100093.41;1792776;79;21404;-70
2021/01/17 12:44:56;;;;;;;56.75;24.98;;;;;;;-9.72;53.04;100093.45;1788333;79;21454;-70
2021/01/17 12:47:24;;;;;;;36.40;14.65;;;;;;;-9.58;52.91;100090.42;1795556;79;21423;-70
2021/01/17 12:49:55;;;;;;;41.42;16.17;;;;;;;-9.46;52.27;100084.41;1795353;79;21132;-70
2021/01/17 12:52:22;;;;;;;84.50;27.67;;;;;;;-9.44;51.42;100092.11;1788422;78;21115;-70
2021/01/17 12:54:50;;;;;;;93.10;30.70;;;;;;;-9.57;51.42;100088.28;1780345;78;21222;-71
2021/01/17 12:57:20;;;;;;;62.43;21.15;;;;;;;-9.53;51.67;100085.31;1779392;79;21566;-71
2021/01/17 12:59:50;;;;;;;57.88;21.70;;;;;;;-9.49;51.86;100083.59;1770077;79;21236;-70
2021/01/17 13:02:18;;;;;;;58.10;24.80;;;;;;;-9.40;51.99;100085.69;1779719;79;22975;-70
2021/01/17 13:04:46;;;;;;;60.65;26.10;;;;;;;-9.33;51.76;100088.66;1763905;81;21428;-70
2021/01/17 13:07:14;;;;;;;37.17;17.42;;;;;;;-9.42;51.36;100084.00;1764001;80;21535;-70
2021/01/17 13:09:42;;;;;;;64.32;26.07;;;;;;;-9.39;51.40;100085.26;1771940;79;21686;-70
2021/01/17 13:12:11;;;;;;;81.00;32.17;;;;;;;-9.36;51.21;100084.84;1787272;79;21151;-70
2021/01/17 13:14:39;;;;;;;81.82;33.83;;;;;;;-9.45;51.06;100087.86;1767237;79;22120;-71
2021/01/17 13:17:06;;;;;;;60.38;28.12;;;;;;;-9.59;51.28;100085.32;1790719;78;21456;-69
2021/01/17 13:19:35;;;;;;;47.55;21.93;;;;;;;-9.59;51.68;100086.59;1782923;80;21118;-70
2021/01/17 13:22:03;;;;;;;61.05;27.58;;;;;;;-9.53;51.74;100087.44;1816053;77;21194;-70
2021/01/17 13:24:32;;;;;;;70.03;32.50;;;;;;;-9.54;51.52;100090.86;1802267;77;21494;-70
2021/01/17 13:27:00;;;;;;;89.97;40.73;;;;;;;-9.51;51.72;100091.27;1800753;78;24276;-70
2021/01/17 13:29:29;;;;;;;75.35;34.88;;;;;;;-9.65;51.47;100091.71;1802722;77;21335;-70
2021/01/17 13:32:01;;;;;;;69.47;32.15;;;;;;;-9.77;51.22;100089.19;1819055;77;21167;-70
2021/01/17 13:34:29;;;;;;;45.15;21.25;;;;;;;-9.82;51.54;100087.94;1821021;78;21197;-70
2021/01/17 13:36:57;;;;;;;39.30;17.87;;;;;;;-9.90;52.14;100089.64;1811057;77;21341;-69
2021/01/17 13:39:25;;;;;;;66.70;27.42;;;;;;;-10.05;51.52;100093.05;1794116;78;22911;-71
2021/01/17 13:41:53;;;;;;;46.75;20.10;;;;;;;-10.37;51.98;100094.37;1799713;78;21448;-70
2021/01/17 13:44:21;;;;;;;73.57;29.18;;;;;;;-10.61;52.30;100091.77;1789774;78;21178;-70
2021/01/17 13:46:51;;;;;;;122.70;43.80;;;;;;;-10.75;52.45;100095.16;1789604;78;21177;-71
2021/01/17 13:49:20;;;;;;;85.67;32.00;;;;;;;-10.86;52.91;100093.44;1812004;78;21209;-69
2021/01/17 13:51:48;;;;;;;81.28;31.62;;;;;;;-10.99;53.27;100096.39;1796603;78;21863;-69
2021/01/17 13:54:15;;;;;;;119.95;38.20;;;;;;;-11.12;53.08;100103.12;1799041;77;21748;-69
2021/01/17 13:56:43;;;;;;;62.55;23.73;;;;;;;-11.20;53.15;100108.61;1821900;78;21131;-70
2021/01/17 13:59:13;;;;;;;44.33;22.02;;;;;;;-11.26;53.43;100113.70;1821256;78;21123;-69
2021/01/17 14:01:41;;;;;;;42.93;22.15;;;;;;;-11.31;53.43;100115.37;1819797;77;21148;-69
2021/01/17 14:04:10;;;;;;;44.77;21.85;;;;;;;-11.38;53.65;100109.84;1796647;78;24217;-70
2021/01/17 14:06:39;;;;;;;39.38;19.98;;;;;;;-11.44;54.03;100111.92;1804160;78;21184;-70
2021/01/17 14:09:07;;;;;;;39.30;20.75;;;;;;;-11.51;54.31;100109.33;1791545;78;21166;-71
2021/01/17 14:11:35;;;;;;;47.85;21.48;;;;;;;-11.59;54.27;100115.22;1792752;78;21662;-70
2021/01/17 14:14:04;;;;;;;41.60;21.45;;;;;;;-11.72;54.62;100117.70;1789635;80;21146;-70
2021/01/17 14:16:42;;;;;;;40.58;20.05;;;;;;;-11.87;54.90;100114.26;1790692;78;22060;-70
2021/01/17 14:19:09;;;;;;;36.80;18.98;;;;;;;-12.01;55.16;100111.16;1795720;78;21179;-72
2021/01/17 14:21:45;;;;;;;39.53;19.17;;;;;;;-12.14;55.65;100115.33;1796419;77;21466;-73
2021/01/17 14:24:17;;;;;;;36.28;18.17;;;;;;;-12.26;56.12;100123.69;1766350;78;21508;-71
2021/01/17 14:26:47;;;;;;;44.05;20.10;;;;;;;-12.43;56.40;100117.63;1800845;77;21453;-72
2021/01/17 14:29:15;;;;;;;47.78;22.67;;;;;;;-12.59;56.65;100114.49;1734184;81;21938;-72
2021/01/17 14:31:47;;;;;;;48.83;22.98;;;;;;;-12.71;56.94;100126.25;1762518;80;21127;-72
2021/01/17 14:34:16;;;;;;;41.95;20.70;;;;;;;-12.82;57.23;100129.53;1789523;80;21151;-71
2021/01/17 14:36:47;;;;;;;51.83;24.92;;;;;;;-12.92;57.49;100133.66;1776926;80;21140;-71
2021/01/17 14:39:21;;;;;;;44.33;22.27;;;;;;;-13.04;57.45;100134.77;1792964;78;21120;-70
2021/01/17 14:41:55;;;;;;;45.88;21.10;;;;;;;-13.19;57.63;100137.17;1789678;80;22103;-80
2021/01/17 14:44:23;;;;;;;43.25;20.90;;;;;;;-13.36;57.83;100140.77;1801123;78;21132;-71
2021/01/17 14:46:53;;;;;;;44.83;21.27;;;;;;;-13.46;58.22;100140.20;1811196;78;21128;-70
2021/01/17 14:49:22;;;;;;;53.08;22.05;;;;;;;-13.52;58.61;100144.78;1807366;78;21149;-72
2021/01/17 14:51:50;;;;;;;43.55;20.27;;;;;;;-13.55;59.04;100149.83;1782379;80;21220;-75
2021/01/17 14:54:19;;;;;;;38.63;20.32;;;;;;;-13.61;59.10;100138.30;1785570;80;22082;-72
2021/01/17 14:56:52;;;;;;;43.40;21.65;;;;;;;-13.66;59.23;100146.28;1764953;80;21155;-74
2021/01/17 14:59:25;;;;;;;42.88;20.85;;;;;;;-13.70;59.42;100142.86;1808867;78;21214;-70
2021/01/17 15:02:00;;;;;;;42.98;21.05;;;;;;;-13.70;59.67;100144.52;1789515;80;21493;-70
2021/01/17 15:04:28;;;;;;;43.75;20.37;;;;;;;-13.75;59.69;100148.27;1805270;78;21460;-70
2021/01/17 15:07:00;;;;;;;64.77;24.40;;;;;;;-13.79;59.83;100145.27;1798017;78;22029;-69
2021/01/17 15:09:31;;;;;;;115.95;31.87;;;;;;;-13.85;60.00;100137.96;1790546;80;21469;-70
2021/01/17 15:11:58;;;;;;;59.90;24.92;;;;;;;-13.92;60.20;100136.59;1795945;78;21149;-70
2021/01/17 15:14:26;;;;;;;52.83;23.65;;;;;;;-14.00;60.30;100130.54;1790471;79;21173;-70
2021/01/17 15:16:55;;;;;;;53.95;23.25;;;;;;;-14.08;60.53;100132.13;1790316;78;21042;-72
2021/01/17 15:19:23;;;;;;;85.47;27.32;;;;;;;-14.10;60.78;100126.16;1790426;79;21878;-70
2021/01/17 15:21:51;;;;;;;63.68;25.25;;;;;;;-14.11;61.02;100135.02;1794781;78;21165;-70
2021/01/17 15:24:19;;;;;;;58.30;24.37;;;;;;;-14.14;61.17;100137.09;1810420;78;21198;-71
2021/01/17 15:26:47;;;;;;;61.30;25.10;;;;;;;-14.16;61.40;100132.42;1792383;78;21492;-70
2021/01/17 15:29:15;;;;;;;96.67;32.83;;;;;;;-14.20;61.52;100133.18;1798706;78;21077;-72
2021/01/17 15:31:46;;;;;;;125.07;41.58;;;;;;;-14.25;61.49;100133.13;1815071;78;21953;-71
2021/01/17 15:34:14;;;;;;;101.87;38.08;;;;;;;-14.29;61.53;100146.56;1806381;78;21066;-69
2021/01/17 15:36:43;;;;;;;205.00;63.35;;;;;;;-14.32;61.68;100148.20;1788888;80;21100;-68
2021/01/17 15:39:11;;;;;;;267.20;76.60;;;;;;;-14.33;62.03;100148.63;1777471;79;21143;-70
2021/01/17 15:41:39;;;;;;;111.42;40.28;;;;;;;-14.33;62.14;100146.50;1820015;78;21047;-70
2021/01/17 15:44:15;;;;;;;59.30;24.90;;;;;;;-14.35;62.33;100150.29;1790541;80;22056;-69
2021/01/17 15:46:43;;;;;;;55.03;25.95;;;;;;;-14.39;62.42;100148.92;1792106;78;21091;-69
2021/01/17 15:49:11;;;;;;;68.55;28.55;;;;;;;-14.43;62.56;100149.72;1812645;78;21138;-69
2021/01/17 15:51:40;;;;;;;87.90;38.08;;;;;;;-14.50;62.76;100140.75;1808678;78;21127;-71
2021/01/17 15:54:08;;;;;;;79.27;35.15;;;;;;;-14.51;62.84;100148.34;1821697;78;21182;-71
2021/01/17 15:56:36;;;;;;;70.25;32.08;;;;;;;-14.52;62.94;100146.22;1821720;78;22846;-70
2021/01/17 15:59:04;;;;;;;171.37;49.63;;;;;;;-14.50;63.22;100153.84;1821682;78;21127;-70
2021/01/17 16:01:32;;;;;;;232.40;64.90;;;;;;;-14.53;63.34;100152.53;1802927;78;21182;-72
2021/01/17 16:04:00;;;;;;;107.22;36.77;;;;;;;-14.54;63.53;100146.61;1793143;78;21115;-71
2021/01/17 16:06:37;;;;;;;73.15;28.05;;;;;;;-14.56;63.59;100154.61;1810991;78;21628;-71
2021/01/17 16:09:07;;;;;;;95.72;36.60;;;;;;;-14.54;63.76;100152.95;1767486;80;22037;-71
2021/01/17 16:11:36;;;;;;;43.10;21.73;;;;;;;-14.51;63.88;100152.99;1808926;78;21132;-70
2021/01/17 16:14:04;;;;;;;65.50;28.65;;;;;;;-14.48;64.01;100158.52;1821607;78;21157;-70
2021/01/17 16:16:36;;;;;;;56.18;25.45;;;;;;;-14.48;64.11;100154.30;1822126;78;21695;-69
2021/01/17 16:19:05;;;;;;;46.45;21.90;;;;;;;-14.47;64.12;100159.00;1822030;78;21567;-70
2021/01/17 16:21:33;;;;;;;45.73;22.05;;;;;;;-14.47;64.23;100159.84;1803724;78;22416;-70
2021/01/17 16:24:03;;;;;;;39.90;19.65;;;;;;;-14.46;64.34;100156.48;1789695;78;21184;-69
2021/01/17 16:26:31;;;;;;;53.60;25.30;;;;;;;-14.48;64.39;100154.30;1807099;78;21122;-70
2021/01/17 16:29:02;;;;;;;88.60;36.28;;;;;;;-14.49;64.53;100162.75;1809877;78;21157;-70
2021/01/17 16:31:36;;;;;;;69.47;28.50;;;;;;;-14.46;64.63;100160.70;1821818;78;21176;-71
2021/01/17 16:34:04;;;;;;;48.17;22.17;;;;;;;-14.46;64.67;100163.23;1810724;78;22117;-75
2021/01/17 16:36:32;;;;;;;43.58;21.70;;;;;;;-14.48;64.69;100169.94;1789702;78;21216;-78
2021/01/17 16:39:00;;;;;;;63.48;27.82;;;;;;;-14.47;64.89;100163.66;1777477;80;21141;-71
2021/01/17 16:41:29;;;;;;;46.55;22.00;;;;;;;-14.46;65.01;100166.63;1789152;78;21675;-71
2021/01/17 16:43:57;;;;;;;48.40;23.60;;;;;;;-14.49;65.00;100174.16;1795748;78;21198;-74
2021/01/17 16:46:35;;;;;;;57.00;26.07;;;;;;;-14.53;65.05;100182.55;1811649;78;22066;-73
2021/01/17 16:49:04;;;;;;;55.98;25.27;;;;;;;-14.48;65.10;100186.42;1799340;78;21198;-72
2021/01/17 16:51:39;;;;;;;51.92;23.55;;;;;;;-14.46;65.18;100184.38;1821919;78;21182;-72
2021/01/17 16:54:08;;;;;;;47.83;22.00;;;;;;;-14.44;65.18;100179.30;1814840;78;21115;-72
2021/01/17 16:56:36;;;;;;;47.58;21.90;;;;;;;-14.49;65.22;100179.64;1799032;78;21166;-74
2021/01/17 16:59:05;;;;;;;57.40;24.80;;;;;;;-14.52;65.27;100180.45;1820813;78;21892;-74
2021/01/17 17:01:42;;;;;;;48.08;21.60;;;;;;;-14.56;65.32;100186.30;1803503;78;21210;-70
2021/01/17 17:04:10;;;;;;;46.05;22.45;;;;;;;-14.59;65.33;100187.91;1810990;78;21138;-72
2021/01/17 17:06:41;;;;;;;42.25;21.42;;;;;;;-14.59;65.42;100186.23;1807059;78;21470;-74
2021/01/17 17:09:11;;;;;;;45.10;21.27;;;;;;;-14.63;65.44;100183.20;1807423;78;21134;-69
2021/01/17 17:11:41;;;;;;;44.55;21.55;;;;;;;-14.69;65.43;100186.88;1804354;78;22046;-74
2021/01/17 17:14:09;;;;;;;52.43;22.52;;;;;;;-14.77;65.40;100184.61;1813729;77;21150;-72
2021/01/17 17:16:39;;;;;;;61.13;23.60;;;;;;;-14.80;65.45;100188.36;1798702;77;22150;-71
2021/01/17 17:19:08;;;;;;;53.70;21.93;;;;;;;-14.86;65.49;100194.19;1778332;78;21550;-71
2021/01/17 17:21:36;;;;;;;44.00;20.68;;;;;;;-14.90;65.54;100188.59;1819233;78;21123;-71
2021/01/17 17:24:07;;;;;;;61.85;25.50;;;;;;;-14.99;65.58;100183.76;1792883;78;22711;-71
2021/01/17 17:26:38;;;;;;;51.60;21.95;;;;;;;-15.01;65.65;100191.33;1807069;77;21122;-71
2021/01/17 17:29:09;;;;;;;41.80;20.97;;;;;;;-15.02;65.79;100190.05;1813208;77;21161;-69
2021/01/17 17:31:46;;;;;;;40.95;18.90;;;;;;;-15.04;65.83;100197.20;1789921;78;21154;-69
2021/01/17 17:34:16;;;;;;;35.52;16.05;;;;;;;-15.05;65.96;100196.77;1796296;78;21479;-72
2021/01/17 17:36:44;;;;;;;46.53;20.00;;;;;;;-15.00;66.04;100196.84;1814009;78;21892;-67
2021/01/17 17:39:22;;;;;;;60.52;23.70;;;;;;;-14.98;66.03;100201.94;1816810;78;21143;-70
2021/01/17 17:41:49;;;;;;;39.73;18.80;;;;;;;-14.99;66.00;100195.16;1808239;77;21162;-69
2021/01/17 17:44:18;;;;;;;42.13;18.45;;;;;;;-15.01;66.03;100201.88;1817390;78;21167;-69
2021/01/17 17:46:48;;;;;;;40.08;18.57;;;;;;;-15.07;66.03;100213.58;1797779;78;21158;-68
2021/01/17 17:49:18;;;;;;;39.55;18.42;;;;;;;-15.14;66.02;100210.50;1802831;78;22048;-68
2021/01/17 17:51:51;;;;;;;38.58;18.60;;;;;;;-15.18;66.07;100211.25;1793373;77;22207;-69
2021/01/17 17:54:19;;;;;;;;;;;;;;;-15.22;66.08;100209.89;1810476;78;21533;-67
2021/01/17 17:56:47;;;;;;;34.35;16.57;;;;;;;-15.27;66.03;100207.66;1791923;77;20466;-66
2021/01/17 17:59:16;;;;;;;43.13;17.55;;;;;;;-15.38;66.01;100203.63;1793384;77;22163;-68
2021/01/17 18:01:47;;;;;;;36.00;17.45;;;;;;;-15.47;65.98;100217.35;1796327;78;22133;-68
2021/01/17 18:04:15;;;;;;;38.42;18.05;;;;;;;-15.56;65.99;100220.94;1800163;77;21222;-67
2021/01/17 18:06:47;;;;;;;44.80;20.10;;;;;;;-15.65;66.01;100212.76;1809309;78;21198;-67
2021/01/17 18:09:15;;;;;;;37.80;17.90;;;;;;;-15.71;66.02;100215.17;1802549;78;21191;-68
2021/01/17 18:11:44;;;;;;;40.70;18.27;;;;;;;-15.82;66.03;100217.45;1809743;77;21166;-68
2021/01/17 18:14:12;;;;;;;42.48;16.85;;;;;;;-15.88;66.12;100223.61;1800151;77;22565;-67
2021/01/17 18:16:44;;;;;;;44.00;18.62;;;;;;;-15.90;66.26;100226.52;1796522;78;21629;-67
2021/01/17 18:19:12;;;;;;;41.30;18.62;;;;;;;-15.95;66.28;100225.54;1785529;78;21170;-67
2021/01/17 18:21:42;;;;;;;41.70;18.35;;;;;;;-16.03;66.25;100232.94;1811348;78;22690;-68
2021/01/17 18:24:10;;;;;;;45.65;18.65;;;;;;;-16.05;66.35;100231.20;1808328;77;21185;-68
2021/01/17 18:26:39;;;;;;;43.13;18.50;;;;;;;-16.10;66.33;100235.30;1825737;78;22044;-68
2021/01/17 18:29:09;;;;;;;38.25;17.27;;;;;;;-16.15;66.40;100234.31;1813032;78;21170;-68
2021/01/17 18:31:37;;;;;;;39.80;18.45;;;;;;;-16.17;66.47;100241.86;1812146;78;21134;-67
2021/01/17 18:34:05;;;;;;;39.58;17.67;;;;;;;-16.17;66.57;100239.75;1816919;78;21114;-68
2021/01/17 18:36:36;;;;;;;39.98;18.10;;;;;;;-16.16;66.71;100235.13;1793272;79;21577;-67
2021/01/17 18:39:06;;;;;;;98.17;40.78;;;;;;;-16.15;66.80;100239.38;1813862;78;22023;-67
2021/01/17 18:41:37;;;;;;;51.45;22.27;;;;;;;-16.11;66.95;100243.30;1809124;78;21193;-68
2021/01/17 18:44:06;;;;;;;32.25;16.35;;;;;;;-16.06;67.05;100239.60;1801795;78;21162;-68
2021/01/17 18:46:35;;;;;;;31.82;16.48;;;;;;;-16.04;67.09;100245.14;1801622;78;21161;-68
2021/01/17 18:49:03;;;;;;;38.98;18.65;;;;;;;-16.03;67.22;100244.73;1799225;78;21170;-68
2021/01/17 18:51:32;;;;;;;41.60;17.25;;;;;;;-16.02;67.20;100242.23;1790711;77;22039;-67
2021/01/17 18:54:01;;;;;;;38.30;18.80;;;;;;;-16.03;67.25;100243.47;1801970;77;21174;-68
2021/01/17 18:56:29;;;;;;;41.92;19.62;;;;;;;-16.07;67.22;100232.84;1794107;78;21225;-67
2021/01/17 18:58:57;;;;;;;39.35;18.55;;;;;;;-16.09;67.17;100243.33;1813735;78;21673;-68
2021/01/17 19:01:25;;;;;;;61.65;24.80;;;;;;;-16.14;67.17;100241.94;1811753;78;21767;-68
2021/01/17 19:03:53;;;;;;;65.25;27.20;;;;;;;-16.15;67.25;100235.17;1812282;78;24356;-68
2021/01/17 19:06:24;;;;;;;70.08;29.30;;;;;;;-16.18;67.25;100236.77;1802805;77;21642;-68
2021/01/17 19:08:52;;;;;;;97.30;38.40;;;;;;;-16.20;67.29;100231.69;1818775;78;20991;-68
2021/01/17 19:11:24;;;;;;;56.92;24.70;;;;;;;-16.17;67.38;100230.89;1809237;78;21138;-67
2021/01/17 19:13:52;;;;;;;52.08;24.40;;;;;;;-16.20;67.42;100225.36;1799891;77;21178;-68
2021/01/17 19:16:20;;;;;;;62.83;25.23;;;;;;;-16.22;67.43;100220.64;1797583;78;21887;-68
2021/01/17 19:18:49;;;;;;;55.30;24.05;;;;;;;-16.23;67.47;100221.06;1793115;79;21134;-69
2021/01/17 19:21:17;;;;;;;56.55;24.87;;;;;;;-16.24;67.47;100216.82;1776327;77;21234;-69
2021/01/17 19:23:45;;;;;;;59.15;25.20;;;;;;;-16.21;67.44;100216.03;1764736;79;21076;-66
2021/01/17 19:26:14;;;;;;;52.45;24.25;;;;;;;-16.21;67.53;100207.19;1775042;79;21119;-68
2021/01/17 19:28:42;;;;;;;43.50;22.20;;;;;;;-16.24;67.50;100215.97;1779832;79;21876;-69
2021/01/17 19:31:10;;;;;;;47.58;22.25;;;;;;;-16.26;67.54;100217.20;1773278;79;21558;-68
2021/01/17 19:33:38;;;;;;;51.45;25.05;;;;;;;-16.24;67.61;100219.34;1769669;79;21076;-68
2021/01/17 19:36:07;;;;;;;57.85;27.32;;;;;;;-16.25;67.61;100218.91;1765092;81;21064;-70
2021/01/17 19:38:35;;;;;;;58.35;28.70;;;;;;;-16.26;67.61;100222.66;1779063;79;21056;-68
2021/01/17 19:41:02;;;;;;;47.48;23.67;;;;;;;-16.29;67.61;100223.86;1776009;79;23153;-69
2021/01/17 19:43:34;;;;;;;52.45;24.05;;;;;;;-16.32;67.60;100223.35;1765808;79;21132;-69
2021/01/17 19:46:02;;;;;;;47.08;22.75;;;;;;;-16.34;67.62;100221.20;1791108;79;21420;-69
2021/01/17 19:48:30;;;;;;;47.53;23.22;;;;;;;-16.32;67.65;100222.50;1784870;79;21150;-70
2021/01/17 19:51:00;;;;;;;46.45;22.25;;;;;;;-16.33;67.78;100225.44;1795897;78;21127;-69
2021/01/17 19:53:31;;;;;;;53.40;23.67;;;;;;;-16.33;67.81;100236.81;1783689;78;22817;-70
2021/01/17 19:56:02;;;;;;;47.43;23.45;;;;;;;-16.35;67.76;100248.56;1768547;79;21184;-69
2021/01/17 19:58:30;;;;;;;52.48;23.80;;;;;;;-16.37;67.74;100245.55;1772712;79;21148;-71
2021/01/17 20:01:03;;;;;;;62.38;28.25;;;;;;;-16.42;67.69;100249.21;1764998;81;21175;-69
2021/01/17 20:03:35;;;;;;;51.00;24.20;;;;;;;-16.43;67.60;100245.38;1785551;79;21060;-70
2021/01/17 20:06:03;;;;;;;201.98;74.97;;;;;;;-16.49;67.53;100243.56;1795591;78;21875;-68
2021/01/17 20:08:31;;;;;;;158.90;57.27;;;;;;;-16.50;67.69;100253.20;1763233;79;21163;-68
2021/01/17 20:10:59;;;;;;;110.20;43.70;;;;;;;-16.49;67.74;100249.88;1787198;79;21136;-68
2021/01/17 20:13:30;;;;;;;111.97;46.25;;;;;;;-16.47;67.92;100252.04;1769371;79;21115;-69
2021/01/17 20:15:59;;;;;;;116.88;52.35;;;;;;;-16.45;67.91;100252.93;1778970;79;21012;-68
2021/01/17 20:18:27;;;;;;;171.93;69.17;;;;;;;-16.45;67.88;100252.93;1796481;78;22050;-68
2021/01/17 20:20:57;;;;;;;132.83;54.10;;;;;;;-16.49;67.88;100248.21;1783294;79;21363;-69
2021/01/17 20:23:28;;;;;;;91.80;36.87;;;;;;;-16.50;67.89;100256.61;1792033;78;21086;-68
2021/01/17 20:25:57;;;;;;;69.58;28.10;;;;;;;-16.54;67.80;100255.20;1795201;78;21075;-68
2021/01/17 20:28:25;;;;;;;49.83;22.60;;;;;;;-16.58;67.75;100259.33;1814730;78;21214;-70
2021/01/17 20:30:53;;;;;;;41.87;20.67;;;;;;;-16.60;67.69;100265.99;1797469;78;21886;-68
2021/01/17 20:33:22;;;;;;;54.38;23.47;;;;;;;-16.64;67.65;100268.41;1790983;78;21166;-68
2021/01/17 20:35:52;;;;;;;45.63;20.57;;;;;;;-16.69;67.79;100264.54;1790100;80;21170;-68
2021/01/17 20:38:20;;;;;;;37.15;18.40;;;;;;;-16.68;67.99;100264.13;1802529;78;21162;-68
2021/01/17 20:40:47;;;;;;;38.13;17.60;;;;;;;-16.68;68.00;100266.25;1804824;78;21142;-68
2021/01/17 20:43:15;;;;;;;44.48;20.48;;;;;;;-16.68;67.97;100270.03;1798219;77;22308;-68
2021/01/17 20:45:44;;;;;;;37.10;18.50;;;;;;;-16.69;67.93;100279.70;1802842;78;21178;-68
2021/01/17 20:48:12;;;;;;;51.07;23.77;;;;;;;-16.69;67.98;100271.23;1805791;78;21170;-68
2021/01/17 20:50:40;;;;;;;43.20;20.40;;;;;;;-16.68;68.03;100266.66;1803930;78;21169;-69
2021/01/17 20:53:08;;;;;;;43.13;19.15;;;;;;;-16.68;68.08;100266.25;1819567;78;21154;-68
2021/01/17 20:55:36;;;;;;;35.30;16.95;;;;;;;-16.66;68.06;100264.98;1794111;78;21878;-68
2021/01/17 20:58:04;;;;;;;44.85;20.60;;;;;;;-16.67;68.10;100266.66;1804964;78;22520;-68
2021/01/17 21:00:32;;;;;;;56.83;27.03;;;;;;;-16.66;68.12;100267.52;1796347;78;21217;-68
2021/01/17 21:03:01;;;;;;;47.33;21.30;;;;;;;-16.63;68.10;100268.85;1792562;78;21123;-68
2021/01/17 21:05:29;;;;;;;47.60;21.73;;;;;;;-16.62;68.07;100262.58;1794162;78;21494;-68
2021/01/17 21:07:58;;;;;;;72.77;30.73;;;;;;;-16.64;67.98;100262.95;1814303;78;22044;-69
2021/01/17 21:10:26;;;;;;;65.17;31.80;;;;;;;-16.67;67.83;100270.45;1810002;78;21155;-67
2021/01/17 21:12:54;;;;;;;75.93;34.13;;;;;;;-16.71;67.79;100266.55;1791165;78;21189;-67
2021/01/17 21:15:22;;;;;;;130.25;51.05;;;;;;;-16.75;67.81;100271.94;1809311;78;21215;-67
2021/01/17 21:17:52;;;;;;;178.27;62.15;;;;;;;-16.77;67.79;100267.25;1810895;78;21175;-67
2021/01/17 21:20:22;;;;;;;234.40;84.35;;;;;;;-16.80;67.84;100266.73;1791046;78;23091;-68
2021/01/17 21:22:51;;;;;;;270.10;88.00;;;;;;;-16.82;67.92;100264.98;1801658;77;21181;-68
2021/01/17 21:25:19;;;;;;;206.13;75.75;;;;;;;-16.77;67.94;100273.98;1809175;77;21071;-71
2021/01/17 21:27:47;;;;;;;258.13;91.10;;;;;;;-16.76;68.00;100261.79;1810677;77;21209;-66
2021/01/17 21:30:17;;;;;;;181.02;70.30;;;;;;;-16.73;68.11;100266.92;1818578;77;21332;-68
2021/01/17 21:32:46;;;;;;;136.05;51.60;;;;;;;-16.71;68.18;100268.66;1812993;77;22055;-67
2021/01/17 21:35:14;;;;;;;129.23;51.05;;;;;;;-16.70;68.16;100265.73;1800259;78;20929;-67
2021/01/17 21:37:41;;;;;;;110.28;42.05;;;;;;;-16.72;68.21;100264.84;1801220;78;21106;-68
2021/01/17 21:40:13;;;;;;;110.67;42.50;;;;;;;-16.71;68.25;100267.81;1800598;78;21157;-68
2021/01/17 21:42:41;;;;;;;128.07;48.27;;;;;;;-16.71;68.32;100271.60;1795100;77;21126;-67
2021/01/17 21:45:11;;;;;;;119.35;48.40;;;;;;;-16.67;68.39;100269.19;1794352;80;22118;-68